EISG/SXL METAR and TAF weather

Enter ICAO airport designator
Station Type Date Time Source
EISG METAR 2020/02/20 17:30 UTC NOAA

EISG 201730Z 24016KT 9999 FEW020 SCT050 05/02 Q1009


Station Type Date Time Source
EISG Decoded METAR 2020/02/20 17:30 UTC NOAA

Station name not available
Feb 20, 2020 - 12:30 PM EST / 2020.02.20 1730 UTC
Wind: from the WSW (240 degrees) at 18 MPH (16 KT):0
Visibility: greater than 7 mile(s):0
Sky conditions: partly cloudy
Temperature: 41 F (5 C)
Dew Point: 35 F (2 C)
Relative Humidity: 80%
Pressure (altimeter): 29.80 in. Hg (1009 hPa)
ob: EISG 201730Z 24016KT 9999 FEW020 SCT050 05/02 Q1009
cycle: 17

Station Type Date Time Source
EISG TAF UTC NOAA

Error!

Example: see airport list